sensor_id;sensor_type;location;lat;lon;timestamp;P1;durP1;ratioP1;P2;durP2;ratioP2
69327;SDS011;56472;52.114;5.492;2022-12-18T00:00:09;78.22;;;29.30;;
69327;SDS011;56472;52.114;5.492;2022-12-18T00:02:40;77.25;;;31.17;;
69327;SDS011;56472;52.114;5.492;2022-12-18T00:05:11;94.78;;;32.83;;
69327;SDS011;56472;52.114;5.492;2022-12-18T00:07:40;76.97;;;30.10;;
69327;SDS011;56472;52.114;5.492;2022-12-18T00:10:10;83.38;;;31.73;;
69327;SDS011;56472;52.114;5.492;2022-12-18T00:12:41;82.75;;;29.83;;
69327;SDS011;56472;52.114;5.492;2022-12-18T00:15:09;77.85;;;30.45;;
69327;SDS011;56472;52.114;5.492;2022-12-18T00:17:37;90.75;;;31.42;;
69327;SDS011;56472;52.114;5.492;2022-12-18T00:20:06;79.68;;;32.30;;
69327;SDS011;56472;52.114;5.492;2022-12-18T00:22:37;79.30;;;30.25;;
69327;SDS011;56472;52.114;5.492;2022-12-18T00:25:07;81.85;;;29.90;;
69327;SDS011;56472;52.114;5.492;2022-12-18T00:27:37;80.20;;;29.45;;
69327;SDS011;56472;52.114;5.492;2022-12-18T00:30:08;87.10;;;31.45;;
69327;SDS011;56472;52.114;5.492;2022-12-18T00:32:37;79.20;;;30.42;;
69327;SDS011;56472;52.114;5.492;2022-12-18T00:35:08;81.43;;;31.00;;
69327;SDS011;56472;52.114;5.492;2022-12-18T00:37:37;78.13;;;29.65;;
69327;SDS011;56472;52.114;5.492;2022-12-18T00:40:08;84.40;;;31.50;;
69327;SDS011;56472;52.114;5.492;2022-12-18T00:42:38;80.47;;;30.75;;
69327;SDS011;56472;52.114;5.492;2022-12-18T00:45:25;90.85;;;31.27;;
69327;SDS011;56472;52.114;5.492;2022-12-18T00:47:57;84.20;;;30.02;;
69327;SDS011;56472;52.114;5.492;2022-12-18T00:50:28;88.57;;;29.88;;
69327;SDS011;56472;52.114;5.492;2022-12-18T00:52:59;80.13;;;30.00;;
69327;SDS011;56472;52.114;5.492;2022-12-18T00:55:29;76.13;;;30.60;;
69327;SDS011;56472;52.114;5.492;2022-12-18T00:57:58;83.30;;;29.17;;
69327;SDS011;56472;52.114;5.492;2022-12-18T01:00:29;75.80;;;29.77;;
69327;SDS011;56472;52.114;5.492;2022-12-18T01:03:01;73.60;;;28.58;;
69327;SDS011;56472;52.114;5.492;2022-12-18T01:05:31;83.85;;;29.25;;
69327;SDS011;56472;52.114;5.492;2022-12-18T01:08:01;84.97;;;31.85;;
69327;SDS011;56472;52.114;5.492;2022-12-18T01:10:31;76.88;;;29.90;;
69327;SDS011;56472;52.114;5.492;2022-12-18T01:13:00;86.95;;;32.28;;
69327;SDS011;56472;52.114;5.492;2022-12-18T01:15:29;82.57;;;31.70;;
69327;SDS011;56472;52.114;5.492;2022-12-18T01:18:00;84.15;;;31.92;;
69327;SDS011;56472;52.114;5.492;2022-12-18T01:20:30;92.38;;;31.85;;
69327;SDS011;56472;52.114;5.492;2022-12-18T01:22:58;90.63;;;32.53;;
69327;SDS011;56472;52.114;5.492;2022-12-18T01:25:26;83.60;;;32.67;;
69327;SDS011;56472;52.114;5.492;2022-12-18T01:27:56;89.55;;;31.13;;
69327;SDS011;56472;52.114;5.492;2022-12-18T01:30:28;65.60;;;28.60;;
69327;SDS011;56472;52.114;5.492;2022-12-18T01:32:57;70.93;;;30.63;;
69327;SDS011;56472;52.114;5.492;2022-12-18T01:35:27;75.30;;;29.85;;
69327;SDS011;56472;52.114;5.492;2022-12-18T01:37:57;76.32;;;30.08;;
69327;SDS011;56472;52.114;5.492;2022-12-18T01:40:27;78.05;;;31.35;;
69327;SDS011;56472;52.114;5.492;2022-12-18T01:42:58;74.53;;;29.80;;
69327;SDS011;56472;52.114;5.492;2022-12-18T01:45:30;72.97;;;29.35;;
69327;SDS011;56472;52.114;5.492;2022-12-18T01:48:04;72.72;;;28.52;;
69327;SDS011;56472;52.114;5.492;2022-12-18T01:50:40;67.90;;;29.00;;
69327;SDS011;56472;52.114;5.492;2022-12-18T01:53:13;70.13;;;28.75;;
69327;SDS011;56472;52.114;5.492;2022-12-18T01:55:45;74.68;;;29.23;;
69327;SDS011;56472;52.114;5.492;2022-12-18T01:58:18;75.10;;;29.25;;
69327;SDS011;56472;52.114;5.492;2022-12-18T02:00:51;77.97;;;29.17;;
69327;SDS011;56472;52.114;5.492;2022-12-18T02:03:21;71.38;;;29.15;;
69327;SDS011;56472;52.114;5.492;2022-12-18T02:11:23;66.70;;;26.67;;
69327;SDS011;56472;52.114;5.492;2022-12-18T02:16:55;67.65;;;27.48;;
69327;SDS011;56472;52.114;5.492;2022-12-18T02:20:10;63.90;;;26.33;;
69327;SDS011;56472;52.114;5.492;2022-12-18T02:22:44;57.25;;;24.55;;
69327;SDS011;56472;52.114;5.492;2022-12-18T02:28:09;58.15;;;24.73;;
69327;SDS011;56472;52.114;5.492;2022-12-18T02:30:47;60.45;;;25.58;;
69327;SDS011;56472;52.114;5.492;2022-12-18T02:33:18;58.90;;;25.50;;
69327;SDS011;56472;52.114;5.492;2022-12-18T02:35:50;55.75;;;25.20;;
69327;SDS011;56472;52.114;5.492;2022-12-18T02:38:23;60.25;;;24.92;;
69327;SDS011;56472;52.114;5.492;2022-12-18T02:40:58;59.40;;;24.88;;
69327;SDS011;56472;52.114;5.492;2022-12-18T03:00:42;59.15;;;23.70;;
69327;SDS011;56472;52.114;5.492;2022-12-18T03:08:38;45.10;;;22.40;;
69327;SDS011;56472;52.114;5.492;2022-12-18T03:13:43;45.30;;;21.42;;
69327;SDS011;56472;52.114;5.492;2022-12-18T03:16:23;51.85;;;22.77;;
69327;SDS011;56472;52.114;5.492;2022-12-18T03:18:55;47.65;;;22.77;;
69327;SDS011;56472;52.114;5.492;2022-12-18T03:21:27;45.38;;;22.00;;
69327;SDS011;56472;52.114;5.492;2022-12-18T03:24:02;49.83;;;22.35;;
69327;SDS011;56472;52.114;5.492;2022-12-18T03:26:38;48.90;;;21.98;;
69327;SDS011;56472;52.114;5.492;2022-12-18T03:29:16;45.13;;;22.30;;
69327;SDS011;56472;52.114;5.492;2022-12-18T03:32:47;43.42;;;21.35;;
69327;SDS011;56472;52.114;5.492;2022-12-18T03:35:03;46.10;;;21.17;;
69327;SDS011;56472;52.114;5.492;2022-12-18T03:37:36;51.17;;;22.95;;
69327;SDS011;56472;52.114;5.492;2022-12-18T03:40:07;48.05;;;23.33;;
69327;SDS011;56472;52.114;5.492;2022-12-18T03:42:49;45.92;;;20.73;;
69327;SDS011;56472;52.114;5.492;2022-12-18T03:45:32;48.90;;;21.67;;
69327;SDS011;56472;52.114;5.492;2022-12-18T03:48:20;50.03;;;21.63;;
69327;SDS011;56472;52.114;5.492;2022-12-18T03:51:23;41.60;;;19.05;;
69327;SDS011;56472;52.114;5.492;2022-12-18T03:54:07;45.30;;;20.42;;
69327;SDS011;56472;52.114;5.492;2022-12-18T03:56:47;46.38;;;21.02;;
69327;SDS011;56472;52.114;5.492;2022-12-18T03:59:22;44.92;;;21.60;;
69327;SDS011;56472;52.114;5.492;2022-12-18T04:06:40;43.75;;;19.75;;
69327;SDS011;56472;52.114;5.492;2022-12-18T04:09:22;53.15;;;21.52;;
69327;SDS011;56472;52.114;5.492;2022-12-18T04:11:58;43.40;;;20.40;;
69327;SDS011;56472;52.114;5.492;2022-12-18T04:14:26;41.08;;;18.98;;
69327;SDS011;56472;52.114;5.492;2022-12-18T04:16:58;49.88;;;19.98;;
69327;SDS011;56472;52.114;5.492;2022-12-18T04:19:30;45.30;;;19.98;;
69327;SDS011;56472;52.114;5.492;2022-12-18T04:24:40;42.17;;;19.60;;
69327;SDS011;56472;52.114;5.492;2022-12-18T04:27:19;40.22;;;19.60;;
69327;SDS011;56472;52.114;5.492;2022-12-18T04:29:50;43.53;;;19.87;;
69327;SDS011;56472;52.114;5.492;2022-12-18T04:32:22;42.33;;;19.75;;
69327;SDS011;56472;52.114;5.492;2022-12-18T04:34:51;39.70;;;19.80;;
69327;SDS011;56472;52.114;5.492;2022-12-18T04:37:23;36.77;;;19.10;;
69327;SDS011;56472;52.114;5.492;2022-12-18T04:39:53;39.30;;;19.42;;
69327;SDS011;56472;52.114;5.492;2022-12-18T04:42:30;37.92;;;19.02;;
69327;SDS011;56472;52.114;5.492;2022-12-18T04:45:02;38.20;;;19.47;;
69327;SDS011;56472;52.114;5.492;2022-12-18T04:47:31;42.88;;;19.17;;
69327;SDS011;56472;52.114;5.492;2022-12-18T04:50:00;41.42;;;19.20;;
69327;SDS011;56472;52.114;5.492;2022-12-18T04:52:29;41.08;;;19.02;;
69327;SDS011;56472;52.114;5.492;2022-12-18T04:54:59;39.10;;;19.30;;
69327;SDS011;56472;52.114;5.492;2022-12-18T05:05:57;35.15;;;17.08;;
69327;SDS011;56472;52.114;5.492;2022-12-18T05:31:05;28.73;;;15.02;;
69327;SDS011;56472;52.114;5.492;2022-12-18T05:43:21;30.58;;;14.95;;
69327;SDS011;56472;52.114;5.492;2022-12-18T05:51:41;29.88;;;15.25;;
69327;SDS011;56472;52.114;5.492;2022-12-18T05:55:59;30.65;;;14.77;;
69327;SDS011;56472;52.114;5.492;2022-12-18T05:59:23;34.75;;;16.80;;
69327;SDS011;56472;52.114;5.492;2022-12-18T06:03:46;28.17;;;14.82;;
69327;SDS011;56472;52.114;5.492;2022-12-18T06:12:16;29.60;;;15.35;;
69327;SDS011;56472;52.114;5.492;2022-12-18T06:41:56;27.58;;;14.23;;
69327;SDS011;56472;52.114;5.492;2022-12-18T06:44:48;32.17;;;14.13;;
69327;SDS011;56472;52.114;5.492;2022-12-18T06:47:18;32.22;;;15.38;;
69327;SDS011;56472;52.114;5.492;2022-12-18T06:49:47;30.75;;;15.25;;
69327;SDS011;56472;52.114;5.492;2022-12-18T06:52:16;28.50;;;13.85;;
69327;SDS011;56472;52.114;5.492;2022-12-18T06:54:44;28.45;;;14.13;;
69327;SDS011;56472;52.114;5.492;2022-12-18T06:57:15;29.05;;;13.65;;
69327;SDS011;56472;52.114;5.492;2022-12-18T06:59:44;27.88;;;14.43;;
69327;SDS011;56472;52.114;5.492;2022-12-18T07:02:15;25.43;;;12.90;;
69327;SDS011;56472;52.114;5.492;2022-12-18T07:04:45;24.90;;;13.57;;
69327;SDS011;56472;52.114;5.492;2022-12-18T07:07:14;29.08;;;14.02;;
69327;SDS011;56472;52.114;5.492;2022-12-18T07:09:42;26.85;;;14.75;;
69327;SDS011;56472;52.114;5.492;2022-12-18T07:12:13;27.30;;;13.60;;
69327;SDS011;56472;52.114;5.492;2022-12-18T07:14:42;34.40;;;14.48;;
69327;SDS011;56472;52.114;5.492;2022-12-18T07:17:13;24.85;;;13.75;;
69327;SDS011;56472;52.114;5.492;2022-12-18T07:20:08;28.58;;;14.00;;
69327;SDS011;56472;52.114;5.492;2022-12-18T07:23:44;28.10;;;13.63;;
69327;SDS011;56472;52.114;5.492;2022-12-18T07:27:02;27.35;;;13.95;;
69327;SDS011;56472;52.114;5.492;2022-12-18T07:31:04;27.27;;;13.65;;
69327;SDS011;56472;52.114;5.492;2022-12-18T07:34:53;24.70;;;13.35;;
69327;SDS011;56472;52.114;5.492;2022-12-18T07:38:05;24.75;;;12.63;;
69327;SDS011;56472;52.114;5.492;2022-12-18T07:41:11;27.10;;;14.20;;
69327;SDS011;56472;52.114;5.492;2022-12-18T07:44:20;20.83;;;12.52;;
69327;SDS011;56472;52.114;5.492;2022-12-18T07:48:07;25.88;;;13.32;;
69327;SDS011;56472;52.114;5.492;2022-12-18T07:51:42;26.70;;;13.63;;
69327;SDS011;56472;52.114;5.492;2022-12-18T07:55:27;23.02;;;12.57;;
69327;SDS011;56472;52.114;5.492;2022-12-18T07:58:22;24.98;;;13.43;;
69327;SDS011;56472;52.114;5.492;2022-12-18T08:04:28;25.95;;;14.07;;
69327;SDS011;56472;52.114;5.492;2022-12-18T08:06:57;23.83;;;13.75;;
69327;SDS011;56472;52.114;5.492;2022-12-18T08:09:27;35.22;;;14.95;;
69327;SDS011;56472;52.114;5.492;2022-12-18T08:11:55;36.05;;;14.48;;
69327;SDS011;56472;52.114;5.492;2022-12-18T08:14:25;25.05;;;14.10;;
69327;SDS011;56472;52.114;5.492;2022-12-18T08:16:54;29.38;;;14.15;;
69327;SDS011;56472;52.114;5.492;2022-12-18T08:19:29;24.02;;;13.63;;
69327;SDS011;56472;52.114;5.492;2022-12-18T08:21:58;32.75;;;15.35;;
69327;SDS011;56472;52.114;5.492;2022-12-18T08:24:29;28.83;;;14.85;;
69327;SDS011;56472;52.114;5.492;2022-12-18T08:26:57;27.40;;;14.23;;
69327;SDS011;56472;52.114;5.492;2022-12-18T08:29:45;38.92;;;16.52;;
69327;SDS011;56472;52.114;5.492;2022-12-18T08:32:13;27.25;;;14.80;;
69327;SDS011;56472;52.114;5.492;2022-12-18T08:34:41;24.85;;;14.48;;
69327;SDS011;56472;52.114;5.492;2022-12-18T08:37:10;25.15;;;14.18;;
69327;SDS011;56472;52.114;5.492;2022-12-18T08:39:39;27.20;;;14.35;;
69327;SDS011;56472;52.114;5.492;2022-12-18T08:42:45;23.55;;;14.70;;
69327;SDS011;56472;52.114;5.492;2022-12-18T08:46:23;22.65;;;13.23;;
69327;SDS011;56472;52.114;5.492;2022-12-18T08:59:37;27.77;;;13.80;;
69327;SDS011;56472;52.114;5.492;2022-12-18T09:03:15;26.05;;;13.50;;
69327;SDS011;56472;52.114;5.492;2022-12-18T09:19:38;26.95;;;13.63;;
69327;SDS011;56472;52.114;5.492;2022-12-18T09:35:28;19.42;;;11.85;;
69327;SDS011;56472;52.114;5.492;2022-12-18T09:39:00;24.45;;;11.95;;
69327;SDS011;56472;52.114;5.492;2022-12-18T09:42:36;21.77;;;11.90;;
69327;SDS011;56472;52.114;5.492;2022-12-18T09:45:07;20.15;;;12.50;;
69327;SDS011;56472;52.114;5.492;2022-12-18T09:47:42;25.15;;;12.77;;
69327;SDS011;56472;52.114;5.492;2022-12-18T09:50:31;20.60;;;10.82;;
69327;SDS011;56472;52.114;5.492;2022-12-18T09:53:24;19.63;;;12.18;;
69327;SDS011;56472;52.114;5.492;2022-12-18T09:56:59;19.67;;;11.13;;
69327;SDS011;56472;52.114;5.492;2022-12-18T10:00:20;21.17;;;11.68;;
69327;SDS011;56472;52.114;5.492;2022-12-18T10:03:00;18.92;;;11.93;;
69327;SDS011;56472;52.114;5.492;2022-12-18T10:06:06;20.40;;;11.88;;
69327;SDS011;56472;52.114;5.492;2022-12-18T10:17:56;20.77;;;11.52;;
69327;SDS011;56472;52.114;5.492;2022-12-18T10:20:49;23.30;;;11.80;;
69327;SDS011;56472;52.114;5.492;2022-12-18T10:23:33;23.10;;;11.80;;
69327;SDS011;56472;52.114;5.492;2022-12-18T10:26:25;19.55;;;10.88;;
69327;SDS011;56472;52.114;5.492;2022-12-18T10:28:52;21.63;;;11.00;;
69327;SDS011;56472;52.114;5.492;2022-12-18T10:31:24;20.73;;;10.60;;
69327;SDS011;56472;52.114;5.492;2022-12-18T10:33:53;21.95;;;11.35;;
69327;SDS011;56472;52.114;5.492;2022-12-18T10:36:23;18.83;;;11.40;;
69327;SDS011;56472;52.114;5.492;2022-12-18T10:38:51;18.65;;;10.65;;
69327;SDS011;56472;52.114;5.492;2022-12-18T10:43:47;18.15;;;10.57;;
69327;SDS011;56472;52.114;5.492;2022-12-18T10:46:15;16.77;;;10.02;;
69327;SDS011;56472;52.114;5.492;2022-12-18T10:51:24;21.10;;;10.98;;
69327;SDS011;56472;52.114;5.492;2022-12-18T10:53:58;29.13;;;14.35;;
69327;SDS011;56472;52.114;5.492;2022-12-18T10:56:28;19.20;;;11.63;;
69327;SDS011;56472;52.114;5.492;2022-12-18T10:59:06;16.20;;;10.50;;
69327;SDS011;56472;52.114;5.492;2022-12-18T11:04:28;20.88;;;11.43;;
69327;SDS011;56472;52.114;5.492;2022-12-18T11:07:05;19.90;;;10.85;;
69327;SDS011;56472;52.114;5.492;2022-12-18T11:09:36;21.70;;;11.35;;
69327;SDS011;56472;52.114;5.492;2022-12-18T11:12:08;20.77;;;11.35;;
69327;SDS011;56472;52.114;5.492;2022-12-18T11:14:48;24.42;;;11.68;;
69327;SDS011;56472;52.114;5.492;2022-12-18T11:17:29;21.83;;;11.37;;
69327;SDS011;56472;52.114;5.492;2022-12-18T11:20:05;18.98;;;12.30;;
69327;SDS011;56472;52.114;5.492;2022-12-18T11:22:54;23.58;;;11.02;;
69327;SDS011;56472;52.114;5.492;2022-12-18T11:25:29;19.23;;;11.07;;
69327;SDS011;56472;52.114;5.492;2022-12-18T11:36:55;17.60;;;10.48;;
69327;SDS011;56472;52.114;5.492;2022-12-18T11:39:35;23.70;;;10.98;;
69327;SDS011;56472;52.114;5.492;2022-12-18T11:42:12;22.27;;;11.68;;
69327;SDS011;56472;52.114;5.492;2022-12-18T11:44:43;20.48;;;11.07;;
69327;SDS011;56472;52.114;5.492;2022-12-18T11:50:09;21.80;;;11.07;;
69327;SDS011;56472;52.114;5.492;2022-12-18T11:52:44;18.60;;;11.02;;
69327;SDS011;56472;52.114;5.492;2022-12-18T11:55:31;18.38;;;11.02;;
69327;SDS011;56472;52.114;5.492;2022-12-18T12:04:10;16.92;;;11.13;;
69327;SDS011;56472;52.114;5.492;2022-12-18T12:06:41;19.02;;;11.10;;
69327;SDS011;56472;52.114;5.492;2022-12-18T12:09:45;17.90;;;10.77;;
69327;SDS011;56472;52.114;5.492;2022-12-18T12:15:03;22.92;;;11.70;;
69327;SDS011;56472;52.114;5.492;2022-12-18T12:17:44;19.67;;;11.57;;
69327;SDS011;56472;52.114;5.492;2022-12-18T12:23:15;16.38;;;11.20;;
69327;SDS011;56472;52.114;5.492;2022-12-18T12:26:06;21.95;;;12.90;;
69327;SDS011;56472;52.114;5.492;2022-12-18T12:28:44;25.67;;;12.88;;
69327;SDS011;56472;52.114;5.492;2022-12-18T12:36:57;21.02;;;11.00;;
69327;SDS011;56472;52.114;5.492;2022-12-18T12:39:37;23.77;;;11.02;;
69327;SDS011;56472;52.114;5.492;2022-12-18T12:42:16;16.85;;;11.35;;
69327;SDS011;56472;52.114;5.492;2022-12-18T12:45:20;28.67;;;12.05;;
69327;SDS011;56472;52.114;5.492;2022-12-18T12:47:54;19.40;;;10.05;;
69327;SDS011;56472;52.114;5.492;2022-12-18T12:50:22;21.50;;;12.15;;
69327;SDS011;56472;52.114;5.492;2022-12-18T12:52:52;22.20;;;12.07;;
69327;SDS011;56472;52.114;5.492;2022-12-18T12:55:22;22.38;;;11.52;;
69327;SDS011;56472;52.114;5.492;2022-12-18T13:08:58;21.42;;;12.00;;
69327;SDS011;56472;52.114;5.492;2022-12-18T13:19:52;22.40;;;11.23;;
69327;SDS011;56472;52.114;5.492;2022-12-18T13:22:48;21.85;;;11.93;;
69327;SDS011;56472;52.114;5.492;2022-12-18T13:33:30;21.25;;;12.10;;
69327;SDS011;56472;52.114;5.492;2022-12-18T13:51:41;22.63;;;12.98;;
69327;SDS011;56472;52.114;5.492;2022-12-18T13:54:36;25.75;;;12.45;;
69327;SDS011;56472;52.114;5.492;2022-12-18T13:59:56;22.65;;;13.18;;
69327;SDS011;56472;52.114;5.492;2022-12-18T14:02:25;21.08;;;11.65;;
69327;SDS011;56472;52.114;5.492;2022-12-18T14:04:54;21.95;;;13.15;;
69327;SDS011;56472;52.114;5.492;2022-12-18T14:07:23;22.05;;;12.63;;
69327;SDS011;56472;52.114;5.492;2022-12-18T14:09:55;22.50;;;12.55;;
69327;SDS011;56472;52.114;5.492;2022-12-18T14:12:37;23.67;;;13.32;;
69327;SDS011;56472;52.114;5.492;2022-12-18T14:17:54;25.55;;;12.30;;
69327;SDS011;56472;52.114;5.492;2022-12-18T14:20:24;21.63;;;12.57;;
69327;SDS011;56472;52.114;5.492;2022-12-18T14:22:52;21.05;;;11.95;;
69327;SDS011;56472;52.114;5.492;2022-12-18T14:25:22;21.83;;;11.60;;
69327;SDS011;56472;52.114;5.492;2022-12-18T14:27:53;25.42;;;12.70;;
69327;SDS011;56472;52.114;5.492;2022-12-18T14:30:42;20.90;;;12.27;;
69327;SDS011;56472;52.114;5.492;2022-12-18T14:35:43;22.13;;;12.40;;
69327;SDS011;56472;52.114;5.492;2022-12-18T14:38:28;27.77;;;14.77;;
69327;SDS011;56472;52.114;5.492;2022-12-18T14:40:59;26.02;;;12.63;;
69327;SDS011;56472;52.114;5.492;2022-12-18T14:43:28;20.45;;;13.00;;
69327;SDS011;56472;52.114;5.492;2022-12-18T14:45:59;23.08;;;12.80;;
69327;SDS011;56472;52.114;5.492;2022-12-18T14:48:38;29.77;;;14.63;;
69327;SDS011;56472;52.114;5.492;2022-12-18T14:53:57;24.35;;;14.15;;
69327;SDS011;56472;52.114;5.492;2022-12-18T14:56:33;25.05;;;14.13;;
69327;SDS011;56472;52.114;5.492;2022-12-18T15:04:45;23.27;;;12.18;;
69327;SDS011;56472;52.114;5.492;2022-12-18T15:07:14;22.00;;;12.68;;
69327;SDS011;56472;52.114;5.492;2022-12-18T15:12:39;21.55;;;12.23;;
69327;SDS011;56472;52.114;5.492;2022-12-18T15:20:32;22.60;;;12.48;;
69327;SDS011;56472;52.114;5.492;2022-12-18T15:25:54;22.25;;;12.95;;
69327;SDS011;56472;52.114;5.492;2022-12-18T15:36:23;24.45;;;14.43;;
69327;SDS011;56472;52.114;5.492;2022-12-18T15:39:09;22.70;;;12.68;;
69327;SDS011;56472;52.114;5.492;2022-12-18T15:41:42;23.35;;;13.02;;
69327;SDS011;56472;52.114;5.492;2022-12-18T15:44:31;25.52;;;13.02;;
69327;SDS011;56472;52.114;5.492;2022-12-18T15:47:00;29.17;;;14.00;;
69327;SDS011;56472;52.114;5.492;2022-12-18T15:49:29;23.92;;;13.40;;
69327;SDS011;56472;52.114;5.492;2022-12-18T15:52:03;28.90;;;14.02;;
69327;SDS011;56472;52.114;5.492;2022-12-18T15:54:33;25.40;;;13.73;;
69327;SDS011;56472;52.114;5.492;2022-12-18T15:57:21;23.08;;;13.57;;
69327;SDS011;56472;52.114;5.492;2022-12-18T15:59:51;26.95;;;13.55;;
69327;SDS011;56472;52.114;5.492;2022-12-18T16:02:25;25.60;;;13.50;;
69327;SDS011;56472;52.114;5.492;2022-12-18T16:04:54;28.20;;;13.68;;
69327;SDS011;56472;52.114;5.492;2022-12-18T16:07:24;27.50;;;14.23;;
69327;SDS011;56472;52.114;5.492;2022-12-18T16:09:55;26.95;;;15.30;;
69327;SDS011;56472;52.114;5.492;2022-12-18T16:12:28;24.35;;;13.48;;
69327;SDS011;56472;52.114;5.492;2022-12-18T16:14:59;29.40;;;14.13;;
69327;SDS011;56472;52.114;5.492;2022-12-18T16:17:27;29.70;;;15.50;;
69327;SDS011;56472;52.114;5.492;2022-12-18T16:19:55;25.55;;;13.70;;
69327;SDS011;56472;52.114;5.492;2022-12-18T16:22:28;23.95;;;14.40;;
69327;SDS011;56472;52.114;5.492;2022-12-18T16:24:58;23.20;;;13.68;;
69327;SDS011;56472;52.114;5.492;2022-12-18T16:27:27;27.23;;;14.32;;
69327;SDS011;56472;52.114;5.492;2022-12-18T16:29:55;25.15;;;13.90;;
69327;SDS011;56472;52.114;5.492;2022-12-18T16:32:22;27.40;;;14.73;;
69327;SDS011;56472;52.114;5.492;2022-12-18T16:34:50;27.90;;;15.27;;
69327;SDS011;56472;52.114;5.492;2022-12-18T16:37:17;30.30;;;15.32;;
69327;SDS011;56472;52.114;5.492;2022-12-18T16:39:45;32.60;;;15.95;;
69327;SDS011;56472;52.114;5.492;2022-12-18T16:42:13;29.80;;;14.60;;
69327;SDS011;56472;52.114;5.492;2022-12-18T16:44:53;30.42;;;16.95;;
69327;SDS011;56472;52.114;5.492;2022-12-18T16:47:21;30.60;;;16.73;;
69327;SDS011;56472;52.114;5.492;2022-12-18T16:49:50;31.33;;;15.63;;
69327;SDS011;56472;52.114;5.492;2022-12-18T16:52:20;28.27;;;14.60;;
69327;SDS011;56472;52.114;5.492;2022-12-18T16:54:48;30.83;;;15.73;;
69327;SDS011;56472;52.114;5.492;2022-12-18T16:57:18;28.98;;;16.45;;
69327;SDS011;56472;52.114;5.492;2022-12-18T16:59:52;25.48;;;14.27;;
69327;SDS011;56472;52.114;5.492;2022-12-18T17:02:23;24.30;;;13.88;;
69327;SDS011;56472;52.114;5.492;2022-12-18T17:04:55;32.88;;;15.82;;
69327;SDS011;56472;52.114;5.492;2022-12-18T17:07:24;33.60;;;16.00;;
69327;SDS011;56472;52.114;5.492;2022-12-18T17:09:58;30.55;;;15.90;;
69327;SDS011;56472;52.114;5.492;2022-12-18T17:12:33;32.63;;;16.42;;
69327;SDS011;56472;52.114;5.492;2022-12-18T17:15:04;30.08;;;15.10;;
69327;SDS011;56472;52.114;5.492;2022-12-18T17:17:32;28.75;;;15.90;;
69327;SDS011;56472;52.114;5.492;2022-12-18T17:20:00;34.05;;;16.40;;
69327;SDS011;56472;52.114;5.492;2022-12-18T17:22:27;30.08;;;16.77;;
69327;SDS011;56472;52.114;5.492;2022-12-18T17:24:55;30.45;;;17.30;;
69327;SDS011;56472;52.114;5.492;2022-12-18T17:27:52;30.92;;;15.93;;
69327;SDS011;56472;52.114;5.492;2022-12-18T17:30:38;27.02;;;15.60;;
69327;SDS011;56472;52.114;5.492;2022-12-18T17:33:06;33.72;;;16.55;;
69327;SDS011;56472;52.114;5.492;2022-12-18T17:35:34;34.00;;;18.10;;
69327;SDS011;56472;52.114;5.492;2022-12-18T17:38:03;31.20;;;16.45;;
69327;SDS011;56472;52.114;5.492;2022-12-18T17:40:32;35.38;;;16.40;;
69327;SDS011;56472;52.114;5.492;2022-12-18T17:43:00;29.27;;;16.45;;
69327;SDS011;56472;52.114;5.492;2022-12-18T17:45:36;49.85;;;24.75;;
69327;SDS011;56472;52.114;5.492;2022-12-18T17:48:12;41.33;;;20.75;;
69327;SDS011;56472;52.114;5.492;2022-12-18T17:50:45;31.05;;;17.02;;
69327;SDS011;56472;52.114;5.492;2022-12-18T17:53:18;32.17;;;16.80;;
69327;SDS011;56472;52.114;5.492;2022-12-18T17:55:54;33.40;;;17.67;;
69327;SDS011;56472;52.114;5.492;2022-12-18T17:58:24;31.20;;;17.60;;
69327;SDS011;56472;52.114;5.492;2022-12-18T18:00:52;34.35;;;17.23;;
69327;SDS011;56472;52.114;5.492;2022-12-18T18:03:20;36.50;;;18.20;;
69327;SDS011;56472;52.114;5.492;2022-12-18T18:05:58;31.95;;;17.60;;
69327;SDS011;56472;52.114;5.492;2022-12-18T18:08:28;30.95;;;16.40;;
69327;SDS011;56472;52.114;5.492;2022-12-18T18:11:02;30.23;;;16.70;;
69327;SDS011;56472;52.114;5.492;2022-12-18T18:16:50;34.85;;;17.60;;
69327;SDS011;56472;52.114;5.492;2022-12-18T18:19:33;36.03;;;16.58;;
69327;SDS011;56472;52.114;5.492;2022-12-18T18:22:08;33.00;;;16.65;;
69327;SDS011;56472;52.114;5.492;2022-12-18T18:24:55;34.15;;;17.33;;
69327;SDS011;56472;52.114;5.492;2022-12-18T18:27:41;37.60;;;19.50;;
69327;SDS011;56472;52.114;5.492;2022-12-18T18:30:16;45.90;;;19.10;;
69327;SDS011;56472;52.114;5.492;2022-12-18T18:32:50;33.92;;;17.55;;
69327;SDS011;56472;52.114;5.492;2022-12-18T18:35:25;33.65;;;17.23;;
69327;SDS011;56472;52.114;5.492;2022-12-18T18:38:11;32.42;;;16.13;;
69327;SDS011;56472;52.114;5.492;2022-12-18T18:41:17;32.17;;;17.63;;
69327;SDS011;56472;52.114;5.492;2022-12-18T18:43:52;35.28;;;17.85;;
69327;SDS011;56472;52.114;5.492;2022-12-18T18:46:27;33.40;;;16.00;;
69327;SDS011;56472;52.114;5.492;2022-12-18T18:48:54;33.85;;;18.27;;
69327;SDS011;56472;52.114;5.492;2022-12-18T18:51:26;31.15;;;17.48;;
69327;SDS011;56472;52.114;5.492;2022-12-18T18:54:01;70.60;;;34.40;;
69327;SDS011;56472;52.114;5.492;2022-12-18T18:56:30;50.92;;;25.60;;
69327;SDS011;56472;52.114;5.492;2022-12-18T18:59:19;38.42;;;19.50;;
69327;SDS011;56472;52.114;5.492;2022-12-18T19:01:58;34.78;;;16.60;;
69327;SDS011;56472;52.114;5.492;2022-12-18T19:04:31;33.35;;;18.55;;
69327;SDS011;56472;52.114;5.492;2022-12-18T19:07:00;33.75;;;17.40;;
69327;SDS011;56472;52.114;5.492;2022-12-18T19:09:29;30.85;;;17.30;;
69327;SDS011;56472;52.114;5.492;2022-12-18T19:12:02;33.33;;;16.75;;
69327;SDS011;56472;52.114;5.492;2022-12-18T19:14:52;36.17;;;17.30;;
69327;SDS011;56472;52.114;5.492;2022-12-18T19:17:23;31.17;;;17.38;;
69327;SDS011;56472;52.114;5.492;2022-12-18T19:20:06;37.92;;;17.80;;
69327;SDS011;56472;52.114;5.492;2022-12-18T19:22:55;36.80;;;19.73;;
69327;SDS011;56472;52.114;5.492;2022-12-18T19:26:01;33.15;;;17.20;;
69327;SDS011;56472;52.114;5.492;2022-12-18T19:28:59;34.95;;;17.85;;
69327;SDS011;56472;52.114;5.492;2022-12-18T19:31:29;33.60;;;17.27;;
69327;SDS011;56472;52.114;5.492;2022-12-18T19:34:15;28.77;;;17.08;;
69327;SDS011;56472;52.114;5.492;2022-12-18T19:36:53;32.78;;;19.13;;
69327;SDS011;56472;52.114;5.492;2022-12-18T19:39:25;31.98;;;16.40;;
69327;SDS011;56472;52.114;5.492;2022-12-18T19:41:53;31.60;;;17.52;;
69327;SDS011;56472;52.114;5.492;2022-12-18T19:44:21;32.75;;;18.33;;
69327;SDS011;56472;52.114;5.492;2022-12-18T19:46:49;34.45;;;16.83;;
69327;SDS011;56472;52.114;5.492;2022-12-18T19:49:17;37.25;;;19.80;;
69327;SDS011;56472;52.114;5.492;2022-12-18T19:51:46;32.35;;;16.77;;
69327;SDS011;56472;52.114;5.492;2022-12-18T19:54:16;34.22;;;17.35;;
69327;SDS011;56472;52.114;5.492;2022-12-18T19:56:43;37.00;;;18.67;;
69327;SDS011;56472;52.114;5.492;2022-12-18T19:59:11;32.58;;;17.73;;
69327;SDS011;56472;52.114;5.492;2022-12-18T20:01:39;32.80;;;17.48;;
69327;SDS011;56472;52.114;5.492;2022-12-18T20:04:06;35.35;;;17.48;;
69327;SDS011;56472;52.114;5.492;2022-12-18T20:06:35;35.38;;;19.20;;
69327;SDS011;56472;52.114;5.492;2022-12-18T20:09:13;30.55;;;17.08;;
69327;SDS011;56472;52.114;5.492;2022-12-18T20:11:41;30.00;;;18.25;;
69327;SDS011;56472;52.114;5.492;2022-12-18T20:14:09;34.20;;;19.25;;